SPNLK EPKK-EPKK
Flight info
| Callsign | SPNLK |
|---|---|
| Flight time | 0h 39m |
| Altitude | 2000 |
| Route | EPKK/25 DCT |
| Aircraft | PA24/L-SDGRY/S |
Departure
| Time | 2026-05-06 18:14 |
|---|---|
| Airport | Kraków John Paul II International Airport (EPKK) |
Arrival
| Time | 2026-05-06 18:54 |
|---|---|
| Airport | Kraków John Paul II International Airport (EPKK) |
| Time | Latitude | Longitude | Altitude | Speed | Heading |
|---|---|---|---|---|---|
| 2026-05-06 17:56 | 50.07686 | 19.80078 | 794 ft | 0 kts | 348° |
| 2026-05-06 18:05 | 50.07697 | 19.80074 | 794 ft | 8 kts | 347° |
| 2026-05-06 18:06 | 50.07745 | 19.80103 | 794 ft | 9 kts | 80° |
| 2026-05-06 18:06 | 50.07759 | 19.80202 | 794 ft | 10 kts | 78° |
| 2026-05-06 18:06 | 50.07776 | 19.80318 | 794 ft | 10 kts | 66° |
| 2026-05-06 18:06 | 50.07828 | 19.80343 | 795 ft | 7 kts | 347° |
| 2026-05-06 18:07 | 50.07855 | 19.80333 | 795 ft | 0 kts | 347° |
| 2026-05-06 18:11 | 50.07860 | 19.80332 | 795 ft | 5 kts | 347° |
| 2026-05-06 18:11 | 50.07930 | 19.80306 | 794 ft | 12 kts | 347° |
| 2026-05-06 18:11 | 50.08006 | 19.80264 | 794 ft | 11 kts | 310° |
| 2026-05-06 18:12 | 50.08007 | 19.80164 | 795 ft | 0 kts | 257° |
| 2026-05-06 18:13 | 50.08005 | 19.80151 | 795 ft | 8 kts | 258° |
| 2026-05-06 18:13 | 50.07949 | 19.79747 | 795 ft | 73 kts | 259° |
| 2026-05-06 18:13 | 50.07820 | 19.78843 | 878 ft | 88 kts | 261° |
| 2026-05-06 18:14 | 50.07691 | 19.77898 | 967 ft | 90 kts | 263° |
| 2026-05-06 18:14 | 50.07525 | 19.76973 | 1146 ft | 85 kts | 239° |
| 2026-05-06 18:14 | 50.06994 | 19.76589 | 1294 ft | 90 kts | 171° |
| 2026-05-06 18:14 | 50.06443 | 19.76999 | 1445 ft | 92 kts | 134° |
| 2026-05-06 18:15 | 50.06229 | 19.77894 | 1439 ft | 88 kts | 84° |
| 2026-05-06 18:15 | 50.06302 | 19.78803 | 1387 ft | 82 kts | 72° |
| 2026-05-06 18:15 | 50.06462 | 19.79603 | 1410 ft | 78 kts | 68° |
| 2026-05-06 18:15 | 50.06664 | 19.80392 | 1475 ft | 80 kts | 64° |
| 2026-05-06 18:16 | 50.06886 | 19.81185 | 1519 ft | 83 kts | 60° |
| 2026-05-06 18:16 | 50.07166 | 19.81999 | 1483 ft | 84 kts | 58° |
| 2026-05-06 18:16 | 50.07559 | 19.82618 | 1440 ft | 80 kts | 10° |
| 2026-05-06 18:16 | 50.08104 | 19.82400 | 1377 ft | 84 kts | 333° |
| 2026-05-06 18:17 | 50.08276 | 19.81582 | 1256 ft | 93 kts | 253° |
| 2026-05-06 18:17 | 50.08070 | 19.80569 | 992 ft | 101 kts | 263° |
| 2026-05-06 18:17 | 50.07927 | 19.79582 | 802 ft | 86 kts | 262° |
| 2026-05-06 18:17 | 50.07829 | 19.78830 | 797 ft | 62 kts | 256° |
| 2026-05-06 18:18 | 50.07697 | 19.77950 | 924 ft | 90 kts | 257° |
| 2026-05-06 18:18 | 50.07539 | 19.76999 | 1193 ft | 90 kts | 259° |
| 2026-05-06 18:18 | 50.07203 | 19.76212 | 1347 ft | 100 kts | 200° |
| 2026-05-06 18:18 | 50.06558 | 19.76185 | 1632 ft | 90 kts | 160° |
| 2026-05-06 18:19 | 50.06168 | 19.76926 | 1785 ft | 92 kts | 105° |
| 2026-05-06 18:19 | 50.06120 | 19.77944 | 1901 ft | 104 kts | 86° |
| 2026-05-06 18:19 | 50.06249 | 19.79069 | 1893 ft | 103 kts | 79° |
| 2026-05-06 18:19 | 50.06160 | 19.80027 | 1889 ft | 96 kts | 142° |
| 2026-05-06 18:20 | 50.05543 | 19.79856 | 1707 ft | 110 kts | 239° |
| 2026-05-06 18:20 | 50.05707 | 19.78836 | 1619 ft | 101 kts | 332° |
| 2026-05-06 18:20 | 50.06228 | 19.79198 | 1515 ft | 95 kts | 83° |
| 2026-05-06 18:20 | 50.05851 | 19.79982 | 1448 ft | 101 kts | 160° |
| 2026-05-06 18:21 | 50.05148 | 19.79906 | 1410 ft | 108 kts | 198° |
| 2026-05-06 18:21 | 50.04715 | 19.79085 | 1504 ft | 96 kts | 263° |
| 2026-05-06 18:21 | 50.04945 | 19.78209 | 1595 ft | 88 kts | 335° |
| 2026-05-06 18:21 | 50.05493 | 19.78372 | 1589 ft | 85 kts | 65° |
| 2026-05-06 18:22 | 50.05149 | 19.79047 | 1466 ft | 107 kts | 169° |
| 2026-05-06 18:22 | 50.04676 | 19.78883 | 1464 ft | 110 kts | 219° |
| 2026-05-06 18:22 | 50.04309 | 19.77898 | 1620 ft | 99 kts | 221° |
| 2026-05-06 18:22 | 50.03634 | 19.77789 | 1575 ft | 109 kts | 144° |
| 2026-05-06 18:23 | 50.03414 | 19.78811 | 1691 ft | 100 kts | 78° |
| 2026-05-06 18:23 | 50.03733 | 19.79761 | 1722 ft | 107 kts | 35° |
| 2026-05-06 18:23 | 50.04449 | 19.79696 | 1644 ft | 117 kts | 314° |
| 2026-05-06 18:23 | 50.04717 | 19.78486 | 1605 ft | 120 kts | 269° |
| 2026-05-06 18:24 | 50.04102 | 19.77980 | 1477 ft | 120 kts | 150° |
| 2026-05-06 18:24 | 50.03853 | 19.79029 | 1402 ft | 110 kts | 66° |
| 2026-05-06 18:24 | 50.04420 | 19.79595 | 1354 ft | 104 kts | 349° |
| 2026-05-06 18:24 | 50.04859 | 19.78780 | 1473 ft | 94 kts | 288° |
| 2026-05-06 18:25 | 50.04641 | 19.77907 | 1588 ft | 88 kts | 205° |
| 2026-05-06 18:25 | 50.04127 | 19.78136 | 1732 ft | 80 kts | 120° |
| 2026-05-06 18:25 | 50.04118 | 19.79040 | 1728 ft | 92 kts | 75° |
| 2026-05-06 18:25 | 50.04658 | 19.79344 | 1658 ft | 106 kts | 324° |
| 2026-05-06 18:26 | 50.04755 | 19.78348 | 1788 ft | 91 kts | 234° |
| 2026-05-06 18:26 | 50.04162 | 19.78013 | 1800 ft | 95 kts | 172° |
| 2026-05-06 18:26 | 50.03750 | 19.78677 | 1799 ft | 100 kts | 100° |
| 2026-05-06 18:26 | 50.03767 | 19.79721 | 1917 ft | 96 kts | 78° |
| 2026-05-06 18:27 | 50.04233 | 19.80465 | 1804 ft | 113 kts | 4° |
| 2026-05-06 18:27 | 50.04744 | 19.79719 | 1788 ft | 111 kts | 269° |
| 2026-05-06 18:27 | 50.04699 | 19.78552 | 1844 ft | 105 kts | 252° |
| 2026-05-06 18:27 | 50.04176 | 19.78344 | 1859 ft | 100 kts | 121° |
| 2026-05-06 18:28 | 50.04419 | 19.79320 | 1787 ft | 109 kts | 31° |
| 2026-05-06 18:28 | 50.05188 | 19.79472 | 1724 ft | 116 kts | 359° |
| 2026-05-06 18:28 | 50.05923 | 19.79876 | 1682 ft | 116 kts | 49° |
| 2026-05-06 18:28 | 50.06308 | 19.80957 | 1676 ft | 112 kts | 64° |
| 2026-05-06 18:29 | 50.06677 | 19.81963 | 1639 ft | 99 kts | 52° |
| 2026-05-06 18:29 | 50.07178 | 19.82649 | 1512 ft | 95 kts | 22° |
| 2026-05-06 18:29 | 50.07818 | 19.82641 | 1392 ft | 95 kts | 344° |
| 2026-05-06 18:29 | 50.08295 | 19.82007 | 1343 ft | 90 kts | 286° |
| 2026-05-06 18:30 | 50.08103 | 19.80998 | 1134 ft | 111 kts | 263° |
| 2026-05-06 18:30 | 50.07938 | 19.79832 | 1016 ft | 105 kts | 257° |
| 2026-05-06 18:30 | 50.07797 | 19.78738 | 952 ft | 101 kts | 260° |
| 2026-05-06 18:30 | 50.07648 | 19.77675 | 1018 ft | 101 kts | 256° |
| 2026-05-06 18:31 | 50.07349 | 19.76681 | 1260 ft | 98 kts | 222° |
| 2026-05-06 18:31 | 50.06702 | 19.76461 | 1485 ft | 98 kts | 167° |
| 2026-05-06 18:31 | 50.06071 | 19.76877 | 1624 ft | 103 kts | 130° |
| 2026-05-06 18:31 | 50.06014 | 19.77939 | 1743 ft | 106 kts | 73° |
| 2026-05-06 18:32 | 50.06247 | 19.79057 | 1762 ft | 110 kts | 74° |
| 2026-05-06 18:32 | 50.06484 | 19.80208 | 1726 ft | 113 kts | 75° |
| 2026-05-06 18:32 | 50.06737 | 19.81366 | 1712 ft | 113 kts | 68° |
| 2026-05-06 18:32 | 50.07337 | 19.82021 | 1566 ft | 113 kts | 358° |
| 2026-05-06 18:33 | 50.08064 | 19.81566 | 1257 ft | 112 kts | 319° |
| 2026-05-06 18:33 | 50.08037 | 19.80470 | 987 ft | 113 kts | 250° |
| 2026-05-06 18:33 | 50.07893 | 19.79338 | 799 ft | 95 kts | 261° |
| 2026-05-06 18:33 | 50.07782 | 19.78529 | 796 ft | 63 kts | 256° |
| 2026-05-06 18:34 | 50.07651 | 19.77661 | 899 ft | 92 kts | 256° |
| 2026-05-06 18:34 | 50.07382 | 19.76764 | 1134 ft | 95 kts | 219° |
| 2026-05-06 18:34 | 50.06760 | 19.76488 | 1349 ft | 97 kts | 171° |
| 2026-05-06 18:34 | 50.06151 | 19.76925 | 1507 ft | 101 kts | 127° |
| 2026-05-06 18:35 | 50.06095 | 19.77982 | 1635 ft | 108 kts | 72° |
| 2026-05-06 18:35 | 50.06321 | 19.79200 | 1620 ft | 124 kts | 76° |
| 2026-05-06 18:35 | 50.06278 | 19.80458 | 1768 ft | 117 kts | 127° |
| 2026-05-06 18:35 | 50.05581 | 19.80822 | 1786 ft | 108 kts | 198° |
| 2026-05-06 18:36 | 50.05161 | 19.79926 | 1688 ft | 116 kts | 266° |
| 2026-05-06 18:36 | 50.05552 | 19.78891 | 1616 ft | 117 kts | 339° |
| 2026-05-06 18:36 | 50.06170 | 19.79362 | 1554 ft | 111 kts | 82° |
| 2026-05-06 18:36 | 50.05722 | 19.80160 | 1524 ft | 109 kts | 176° |
| 2026-05-06 18:37 | 50.05165 | 19.79525 | 1493 ft | 109 kts | 259° |
| 2026-05-06 18:37 | 50.05584 | 19.78718 | 1462 ft | 104 kts | 357° |
| 2026-05-06 18:37 | 50.06232 | 19.79070 | 1450 ft | 102 kts | 51° |
| 2026-05-06 18:37 | 50.06485 | 19.80120 | 1423 ft | 102 kts | 68° |
| 2026-05-06 18:38 | 50.06749 | 19.81161 | 1375 ft | 106 kts | 68° |
| 2026-05-06 18:38 | 50.07074 | 19.82202 | 1328 ft | 108 kts | 45° |
| 2026-05-06 18:38 | 50.07749 | 19.82485 | 1350 ft | 104 kts | 351° |
| 2026-05-06 18:38 | 50.08350 | 19.81899 | 1243 ft | 113 kts | 290° |
| 2026-05-06 18:39 | 50.08080 | 19.80756 | 1057 ft | 124 kts | 250° |
| 2026-05-06 18:39 | 50.07912 | 19.79493 | 901 ft | 114 kts | 261° |
| 2026-05-06 18:39 | 50.07751 | 19.78323 | 930 ft | 108 kts | 259° |
| 2026-05-06 18:40 | 50.07338 | 19.76202 | 1229 ft | 102 kts | 224° |
| 2026-05-06 18:40 | 50.06659 | 19.75946 | 1426 ft | 104 kts | 174° |
| 2026-05-06 18:40 | 50.05985 | 19.76264 | 1633 ft | 103 kts | 137° |
| 2026-05-06 18:40 | 50.05855 | 19.77325 | 1741 ft | 111 kts | 82° |
| 2026-05-06 18:41 | 50.06063 | 19.78539 | 1824 ft | 120 kts | 75° |
| 2026-05-06 18:41 | 50.06325 | 19.79797 | 1797 ft | 122 kts | 73° |
| 2026-05-06 18:41 | 50.06620 | 19.81012 | 1762 ft | 118 kts | 72° |
| 2026-05-06 18:41 | 50.06902 | 19.82198 | 1732 ft | 115 kts | 71° |
| 2026-05-06 18:42 | 50.07188 | 19.83314 | 1736 ft | 111 kts | 72° |
| 2026-05-06 18:42 | 50.07445 | 19.84434 | 1716 ft | 109 kts | 75° |
| 2026-05-06 18:42 | 50.07566 | 19.85570 | 1707 ft | 105 kts | 88° |
| 2026-05-06 18:42 | 50.07616 | 19.86696 | 1682 ft | 104 kts | 90° |
| 2026-05-06 18:43 | 50.07641 | 19.87825 | 1639 ft | 105 kts | 89° |
| 2026-05-06 18:43 | 50.07680 | 19.88942 | 1650 ft | 100 kts | 84° |
| 2026-05-06 18:43 | 50.08039 | 19.89790 | 1690 ft | 97 kts | 34° |
| 2026-05-06 18:43 | 50.08715 | 19.90073 | 1631 ft | 105 kts | 7° |
| 2026-05-06 18:44 | 50.09443 | 19.89926 | 1572 ft | 108 kts | 328° |
| 2026-05-06 18:44 | 50.09424 | 19.89006 | 1514 ft | 113 kts | 223° |
| 2026-05-06 18:44 | 50.09079 | 19.87953 | 1574 ft | 114 kts | 261° |
| 2026-05-06 18:44 | 50.08938 | 19.86750 | 1646 ft | 112 kts | 259° |
| 2026-05-06 18:45 | 50.08789 | 19.85545 | 1647 ft | 116 kts | 256° |
| 2026-05-06 18:45 | 50.08598 | 19.84292 | 1565 ft | 121 kts | 254° |
| 2026-05-06 18:45 | 50.08417 | 19.83055 | 1363 ft | 112 kts | 258° |
| 2026-05-06 18:45 | 50.08258 | 19.81927 | 1130 ft | 100 kts | 259° |
| 2026-05-06 18:46 | 50.08117 | 19.80929 | 962 ft | 91 kts | 260° |
| 2026-05-06 18:46 | 50.07981 | 19.79979 | 826 ft | 89 kts | 261° |
| 2026-05-06 18:46 | 50.07865 | 19.79101 | 795 ft | 70 kts | 253° |
| 2026-05-06 18:46 | 50.07775 | 19.78497 | 796 ft | 64 kts | 259° |
| 2026-05-06 18:47 | 50.07646 | 19.77616 | 910 ft | 92 kts | 259° |
| 2026-05-06 18:47 | 50.07512 | 19.76630 | 1136 ft | 94 kts | 248° |
| 2026-05-06 18:47 | 50.06984 | 19.76285 | 1326 ft | 96 kts | 160° |
| 2026-05-06 18:47 | 50.06375 | 19.76724 | 1439 ft | 94 kts | 137° |
| 2026-05-06 18:48 | 50.06147 | 19.77597 | 1402 ft | 86 kts | 88° |
| 2026-05-06 18:48 | 50.06216 | 19.78527 | 1346 ft | 84 kts | 80° |
| 2026-05-06 18:48 | 50.06321 | 19.79390 | 1315 ft | 80 kts | 75° |
| 2026-05-06 18:48 | 50.06468 | 19.80213 | 1295 ft | 78 kts | 71° |
| 2026-05-06 18:49 | 50.06655 | 19.81000 | 1306 ft | 79 kts | 61° |
| 2026-05-06 18:49 | 50.06920 | 19.81737 | 1347 ft | 77 kts | 65° |
| 2026-05-06 18:49 | 50.07123 | 19.82505 | 1382 ft | 76 kts | 64° |
| 2026-05-06 18:49 | 50.07355 | 19.83249 | 1412 ft | 77 kts | 60° |
| 2026-05-06 18:50 | 50.07651 | 19.83943 | 1432 ft | 78 kts | 44° |
| 2026-05-06 18:50 | 50.08151 | 19.84095 | 1465 ft | 81 kts | 341° |
| 2026-05-06 18:50 | 50.08498 | 19.83463 | 1467 ft | 87 kts | 263° |
| 2026-05-06 18:50 | 50.08318 | 19.82482 | 1344 ft | 102 kts | 262° |
| 2026-05-06 18:51 | 50.08179 | 19.81386 | 1101 ft | 100 kts | 258° |
| 2026-05-06 18:51 | 50.08039 | 19.80404 | 892 ft | 87 kts | 260° |
| 2026-05-06 18:51 | 50.07925 | 19.79509 | 1024 ft | 84 kts | 265° |
| 2026-05-06 18:51 | 50.08035 | 19.78632 | 1197 ft | 83 kts | 287° |
| 2026-05-06 18:52 | 50.08299 | 19.77900 | 1371 ft | 81 kts | 338° |
| 2026-05-06 18:52 | 50.08878 | 19.77751 | 1483 ft | 87 kts | 23° |
| 2026-05-06 18:52 | 50.09197 | 19.78567 | 1559 ft | 94 kts | 71° |
| 2026-05-06 18:52 | 50.09422 | 19.79555 | 1626 ft | 95 kts | 75° |
| 2026-05-06 18:53 | 50.09550 | 19.80500 | 1637 ft | 85 kts | 102° |
| 2026-05-06 18:53 | 50.09178 | 19.81169 | 1504 ft | 90 kts | 150° |
| 2026-05-06 18:53 | 50.08563 | 19.81324 | 1343 ft | 96 kts | 191° |
| 2026-05-06 18:53 | 50.08065 | 19.80646 | 986 ft | 102 kts | 258° |
| 2026-05-06 18:54 | 50.07934 | 19.79635 | 799 ft | 83 kts | 260° |
| 2026-05-06 18:54 | 50.07839 | 19.78961 | 796 ft | 45 kts | 259° |
| 2026-05-06 18:54 | 50.07786 | 19.78577 | 795 ft | 32 kts | 257° |
| 2026-05-06 18:54 | 50.07730 | 19.78174 | 793 ft | 33 kts | 256° |
| 2026-05-06 18:55 | 50.07618 | 19.78090 | 794 ft | 14 kts | 181° |
| 2026-05-06 18:55 | 50.07587 | 19.78088 | 794 ft | 9 kts | 182° |
| 2026-05-06 18:55 | 50.07506 | 19.78083 | 794 ft | 11 kts | 177° |
| 2026-05-06 18:55 | 50.07478 | 19.78183 | 794 ft | 16 kts | 78° |
| 2026-05-06 18:56 | 50.07504 | 19.78367 | 794 ft | 19 kts | 77° |
| 2026-05-06 18:56 | 50.07532 | 19.78574 | 794 ft | 20 kts | 78° |
| 2026-05-06 18:56 | 50.07563 | 19.78794 | 794 ft | 20 kts | 78° |
| 2026-05-06 18:56 | 50.07589 | 19.78971 | 794 ft | 14 kts | 77° |
| 2026-05-06 18:57 | 50.07604 | 19.79095 | 794 ft | 10 kts | 76° |
| 2026-05-06 18:57 | 50.07634 | 19.79276 | 794 ft | 24 kts | 79° |
| 2026-05-06 18:57 | 50.07659 | 19.79483 | 794 ft | 14 kts | 77° |
| 2026-05-06 18:57 | 50.07680 | 19.79633 | 794 ft | 15 kts | 78° |
| 2026-05-06 18:58 | 50.07700 | 19.79773 | 794 ft | 12 kts | 77° |
| 2026-05-06 18:58 | 50.07686 | 19.79876 | 794 ft | 11 kts | 163° |
| 2026-05-06 18:58 | 50.07613 | 19.79909 | 794 ft | 10 kts | 134° |
| 2026-05-06 18:58 | 50.07614 | 19.80002 | 794 ft | 8 kts | 79° |
| 2026-05-06 18:59 | 50.07623 | 19.80071 | 794 ft | 6 kts | 78° |
| 2026-05-06 18:59 | 50.07644 | 19.80093 | 794 ft | 4 kts | 343° |
| 2026-05-06 18:59 | 50.07668 | 19.80084 | 794 ft | 4 kts | 348° |
| 2026-05-06 18:59 | 50.07687 | 19.80077 | 794 ft | 0 kts | 346° |
| 2026-05-06 19:00 | 50.07688 | 19.80077 | 794 ft | 0 kts | 346° |